createdAt,value
2022-10-23T00:01:59.304Z,12.43
2022-10-23T00:04:51.787Z,10.80
2022-10-23T00:07:41.090Z,11.00
2022-10-23T00:10:30.473Z,10.27
2022-10-23T00:13:21.160Z,10.40
2022-10-23T00:16:11.225Z,9.83
2022-10-23T00:19:00.608Z,10.17
2022-10-23T00:21:50.199Z,9.70
2022-10-23T00:24:39.478Z,10.00
2022-10-23T00:27:29.083Z,9.83
2022-10-23T00:30:20.036Z,9.63
2022-10-23T00:33:10.282Z,9.40
2022-10-23T00:35:59.681Z,9.70
2022-10-23T00:38:49.655Z,9.60
2022-10-23T00:41:38.988Z,9.20
2022-10-23T00:45:16.899Z,9.83
2022-10-23T00:48:07.785Z,9.70
2022-10-23T00:50:57.874Z,9.40
2022-10-23T00:54:01.065Z,9.60
2022-10-23T00:57:04.265Z,9.97
2022-10-23T00:59:53.695Z,9.50
2022-10-23T01:02:43.348Z,9.33
2022-10-23T01:05:43.844Z,9.40
2022-10-23T01:08:40.189Z,9.30
2022-10-23T01:11:39.757Z,9.80
2022-10-23T01:14:34.333Z,9.50
2022-10-23T01:17:32.121Z,9.37
2022-10-23T01:20:42.363Z,9.50
2022-10-23T01:24:11.545Z,9.50
2022-10-23T01:27:22.634Z,9.50
2022-10-23T01:30:16.286Z,9.40
2022-10-23T01:33:11.428Z,9.60
2022-10-23T01:36:12.776Z,9.50
2022-10-23T01:39:08.935Z,9.30
2022-10-23T01:42:06.168Z,9.23
2022-10-23T01:45:03.241Z,9.63
2022-10-23T01:48:03.102Z,9.47
2022-10-23T01:50:54.073Z,9.70
2022-10-23T01:53:46.614Z,9.70
2022-10-23T01:56:42.573Z,9.60
2022-10-23T01:59:36.873Z,9.80
2022-10-23T02:02:29.915Z,9.60
2022-10-23T02:05:23.692Z,9.70
2022-10-23T02:08:13.896Z,9.87
2022-10-23T02:11:09.815Z,9.60
2022-10-23T02:14:04.655Z,11.90
2022-10-23T02:16:56.379Z,9.67
2022-10-23T02:19:53.850Z,10.10
2022-10-23T02:22:57.257Z,9.60
2022-10-23T02:25:52.912Z,9.60
2022-10-23T02:28:49.675Z,9.63
2022-10-23T02:31:39.388Z,9.63
2022-10-23T02:34:28.865Z,9.50
2022-10-23T02:37:19.606Z,10.00
2022-10-23T02:40:11.949Z,9.70
2022-10-23T02:43:15.596Z,9.97
2022-10-23T02:46:18.411Z,9.90
2022-10-23T02:49:14.856Z,9.80
2022-10-23T02:52:11.849Z,9.90
2022-10-23T02:55:25.028Z,9.40
2022-10-23T02:58:22.613Z,9.53
2022-10-23T03:01:19.129Z,9.77
2022-10-23T03:04:11.382Z,9.63
2022-10-23T03:07:01.287Z,9.50
2022-10-23T03:09:51.016Z,9.80
2022-10-23T03:12:41.946Z,9.40
2022-10-23T03:15:31.527Z,9.90
2022-10-23T03:18:20.863Z,9.80
2022-10-23T03:21:13.986Z,9.60
2022-10-23T03:24:03.324Z,10.30
2022-10-23T03:27:00.449Z,9.90
2022-10-23T03:29:55.681Z,10.33
2022-10-23T03:32:45.395Z,10.30
2022-10-23T03:35:35.035Z,10.37
2022-10-23T03:38:24.525Z,10.73
2022-10-23T03:41:13.995Z,10.20
2022-10-23T03:46:58.980Z,10.07
2022-10-23T03:49:49.310Z,9.90
2022-10-23T03:52:38.683Z,9.80
2022-10-23T03:55:28.360Z,10.40
2022-10-23T03:58:17.706Z,10.00
2022-10-23T04:01:08.060Z,10.17
2022-10-23T04:04:00.223Z,10.63
2022-10-23T04:06:49.577Z,10.30
2022-10-23T04:09:39.534Z,10.57
2022-10-23T04:12:28.910Z,10.00
2022-10-23T04:15:18.519Z,9.60
2022-10-23T04:18:08.950Z,9.57
2022-10-23T04:20:59.610Z,9.70
2022-10-23T04:23:49.035Z,9.60
2022-10-23T04:26:40.453Z,9.40
2022-10-23T04:29:33.216Z,9.67
2022-10-23T04:32:22.737Z,9.90
2022-10-23T04:35:12.070Z,9.40
2022-10-23T04:38:02.797Z,9.57
2022-10-23T04:40:52.220Z,9.90
2022-10-23T04:43:45.050Z,9.80
2022-10-23T04:46:36.555Z,9.70
2022-10-23T04:49:27.108Z,9.70
2022-10-23T04:52:33.910Z,9.63
2022-10-23T04:55:30.627Z,9.40
2022-10-23T04:58:35.608Z,9.07
2022-10-23T05:01:25.101Z,9.43
2022-10-23T05:04:14.772Z,10.07
2022-10-23T05:07:24.407Z,9.83
2022-10-23T05:10:35.462Z,9.63
2022-10-23T05:13:31.758Z,9.63
2022-10-23T05:16:34.092Z,9.50
2022-10-23T05:19:29.143Z,9.37
2022-10-23T05:22:19.651Z,9.67
2022-10-23T05:25:13.998Z,9.70
2022-10-23T05:28:10.095Z,9.30
2022-10-23T05:31:01.164Z,9.33
2022-10-23T05:33:52.290Z,9.70
2022-10-23T05:36:43.409Z,9.20
2022-10-23T05:39:33.934Z,9.20
2022-10-23T05:42:24.453Z,10.90
2022-10-23T05:45:17.436Z,9.50
2022-10-23T05:48:40.542Z,9.23
2022-10-23T05:51:48.044Z,9.30
2022-10-23T05:54:46.027Z,9.33
2022-10-23T05:57:45.371Z,9.40
2022-10-23T06:00:38.813Z,9.50
2022-10-23T06:03:48.040Z,9.30
2022-10-23T06:06:37.623Z,9.30
2022-10-23T06:09:27.069Z,10.10
2022-10-23T06:12:20.092Z,37.37
2022-10-23T06:15:12.063Z,19.00
2022-10-23T06:18:19.390Z,15.47
2022-10-23T06:21:18.439Z,12.57
2022-10-23T06:24:10.474Z,11.93
2022-10-23T06:27:05.279Z,10.90
2022-10-23T06:30:14.012Z,10.73
2022-10-23T06:33:05.925Z,10.03
2022-10-23T06:35:58.889Z,10.40
2022-10-23T06:38:49.410Z,10.50
2022-10-23T06:41:41.991Z,10.33
2022-10-23T06:44:31.598Z,12.30
2022-10-23T06:47:30.626Z,10.03
2022-10-23T06:50:38.780Z,9.80
2022-10-23T06:53:35.790Z,9.80
2022-10-23T06:56:32.366Z,9.83
2022-10-23T06:59:22.823Z,9.70
2022-10-23T07:02:14.597Z,10.00
2022-10-23T07:05:04.977Z,9.80
2022-10-23T07:07:56.092Z,9.50
2022-10-23T07:10:51.546Z,9.80
2022-10-23T07:13:44.246Z,9.30
2022-10-23T07:16:39.230Z,9.40
2022-10-23T07:19:29.013Z,9.70
2022-10-23T07:22:20.000Z,9.53
2022-10-23T07:25:13.378Z,9.53
2022-10-23T07:28:06.030Z,9.30
2022-10-23T07:30:59.266Z,11.33
2022-10-23T07:33:57.960Z,9.50
2022-10-23T07:36:47.498Z,9.40
2022-10-23T07:39:36.975Z,9.57
2022-10-23T07:42:26.502Z,9.63
2022-10-23T07:45:17.573Z,9.73
2022-10-23T07:48:08.757Z,10.70
2022-10-23T07:51:18.386Z,12.70
2022-10-23T07:54:13.633Z,10.27
2022-10-23T07:57:25.905Z,9.97
2022-10-23T08:00:26.545Z,9.27
2022-10-23T08:03:25.766Z,9.37
2022-10-23T08:06:15.486Z,9.43
2022-10-23T08:09:06.785Z,9.43
2022-10-23T08:11:59.219Z,9.20
2022-10-23T08:14:50.088Z,10.23
2022-10-23T08:17:41.435Z,9.37
2022-10-23T08:20:40.855Z,9.23
2022-10-23T08:23:31.890Z,8.87
2022-10-23T08:26:21.480Z,8.90
2022-10-23T08:29:10.907Z,9.23
2022-10-23T08:32:00.555Z,12.40
2022-10-23T08:35:00.226Z,9.10
2022-10-23T08:37:53.060Z,8.93
2022-10-23T08:40:46.935Z,8.80
2022-10-23T08:44:02.710Z,8.70
2022-10-23T08:47:08.157Z,9.00
2022-10-23T08:50:17.060Z,8.90
2022-10-23T08:53:17.364Z,12.23
2022-10-23T08:56:14.369Z,9.10
2022-10-23T08:59:12.834Z,8.90
2022-10-23T09:02:07.060Z,8.93
2022-10-23T09:04:58.870Z,9.47
2022-10-23T09:08:12.795Z,8.90
2022-10-23T09:11:09.418Z,8.57
2022-10-23T09:14:46.026Z,9.50
2022-10-23T09:17:40.062Z,8.60
2022-10-23T09:20:34.376Z,9.13
2022-10-23T09:23:26.120Z,8.93
2022-10-23T09:26:18.870Z,8.83
2022-10-23T09:29:22.987Z,8.60
2022-10-23T09:32:12.327Z,8.40
2022-10-23T09:35:01.684Z,8.63
2022-10-23T09:37:53.305Z,8.57
2022-10-23T09:40:44.945Z,8.57
2022-10-23T09:43:34.980Z,8.20
2022-10-23T09:46:26.678Z,8.80
2022-10-23T09:49:23.148Z,10.30
2022-10-23T09:52:27.164Z,9.70
2022-10-23T09:55:23.259Z,9.13
2022-10-23T09:58:23.327Z,9.30
2022-10-23T10:01:25.193Z,9.50
2022-10-23T10:04:18.004Z,9.00
2022-10-23T10:07:20.118Z,9.30
2022-10-23T10:10:16.980Z,9.57
2022-10-23T10:13:19.415Z,9.30
2022-10-23T10:16:18.110Z,9.40
2022-10-23T10:19:20.331Z,9.90
2022-10-23T10:22:22.838Z,9.43
2022-10-23T10:25:23.145Z,9.13
2022-10-23T10:28:29.973Z,9.47
2022-10-23T10:31:31.387Z,9.83
2022-10-23T10:34:31.182Z,9.50
2022-10-23T10:37:33.100Z,9.90
2022-10-23T10:40:29.484Z,9.73
2022-10-23T10:43:33.707Z,9.63
2022-10-23T10:46:33.113Z,9.57
2022-10-23T10:49:31.349Z,9.33
2022-10-23T10:52:49.274Z,10.83
2022-10-23T10:55:42.897Z,9.87
2022-10-23T10:58:41.055Z,9.67
2022-10-23T11:01:38.254Z,9.70
2022-10-23T11:04:38.142Z,9.60
2022-10-23T11:07:35.711Z,9.30
2022-10-23T11:10:25.086Z,9.93
2022-10-23T11:13:28.250Z,9.63
2022-10-23T11:16:23.737Z,9.60
2022-10-23T11:19:23.210Z,9.03
2022-10-23T11:22:22.238Z,9.33
2022-10-23T11:25:33.291Z,9.50
2022-10-23T11:28:42.559Z,9.30
2022-10-23T11:31:40.627Z,9.63
2022-10-23T11:35:12.103Z,9.70
2022-10-23T11:38:10.688Z,9.40
2022-10-23T11:41:03.549Z,9.23
2022-10-23T11:43:57.031Z,9.17
2022-10-23T11:46:47.501Z,9.50
2022-10-23T11:49:38.375Z,9.50
2022-10-23T11:52:27.822Z,9.33
2022-10-23T11:55:21.700Z,9.10
2022-10-23T11:58:22.376Z,9.10
2022-10-23T12:01:28.467Z,9.70
2022-10-23T12:04:26.052Z,9.70
2022-10-23T12:07:24.255Z,9.57
2022-10-23T12:10:26.633Z,9.67
2022-10-23T12:13:33.257Z,9.23
2022-10-23T12:16:22.932Z,9.23
2022-10-23T12:19:23.022Z,10.30
2022-10-23T12:22:13.088Z,9.57
2022-10-23T12:25:13.061Z,9.50
2022-10-23T12:28:13.899Z,9.40
2022-10-23T12:31:24.673Z,9.57
2022-10-23T12:34:30.010Z,9.60
2022-10-23T12:37:56.074Z,9.67
2022-10-23T12:40:52.488Z,9.77
2022-10-23T12:43:44.081Z,9.73
2022-10-23T12:46:37.194Z,9.93
2022-10-23T12:49:31.594Z,9.90
2022-10-23T12:52:24.579Z,10.10
2022-10-23T12:55:15.801Z,10.30
2022-10-23T12:58:06.591Z,10.10
2022-10-23T13:00:58.801Z,9.97
2022-10-23T13:03:48.904Z,13.97
2022-10-23T13:06:39.551Z,9.90
2022-10-23T13:09:33.218Z,10.07
2022-10-23T13:12:39.853Z,11.70
2022-10-23T13:15:39.303Z,9.90
2022-10-23T13:18:28.738Z,9.73
2022-10-23T13:21:22.162Z,9.90
2022-10-23T13:24:21.694Z,9.77
2022-10-23T13:27:27.907Z,10.00
2022-10-23T13:30:33.994Z,9.60
2022-10-23T13:33:25.255Z,9.90
2022-10-23T13:36:27.439Z,10.07
2022-10-23T13:39:17.738Z,9.60
2022-10-23T13:42:15.489Z,9.50
2022-10-23T13:45:05.342Z,10.40
2022-10-23T13:47:56.131Z,9.80
2022-10-23T13:50:45.484Z,11.27
2022-10-23T13:53:34.811Z,10.13
2022-10-23T13:56:26.437Z,10.30
2022-10-23T13:59:16.530Z,10.43
2022-10-23T14:02:17.734Z,10.10
2022-10-23T14:05:09.081Z,10.27
2022-10-23T14:07:58.473Z,10.37
2022-10-23T14:10:48.083Z,10.23
2022-10-23T14:13:37.436Z,10.30
2022-10-23T14:16:27.055Z,10.67
2022-10-23T14:19:16.483Z,10.70
2022-10-23T14:22:07.275Z,10.90
2022-10-23T14:24:56.642Z,10.43
2022-10-23T14:27:46.130Z,10.80
2022-10-23T14:30:37.858Z,11.27
2022-10-23T14:33:27.284Z,10.70
2022-10-23T14:36:16.655Z,12.30
2022-10-23T14:39:07.562Z,13.23
2022-10-23T14:41:56.899Z,11.00
2022-10-23T14:44:46.265Z,11.10
2022-10-23T14:47:35.718Z,11.73
2022-10-23T14:50:25.245Z,11.53
2022-10-23T14:53:14.888Z,11.63
2022-10-23T14:56:06.264Z,11.40
2022-10-23T14:59:02.590Z,11.87
2022-10-23T15:04:46.380Z,12.37
2022-10-23T15:07:35.789Z,11.37
2022-10-23T15:10:25.214Z,11.57
2022-10-23T15:13:16.039Z,11.90
2022-10-23T15:16:08.204Z,11.40
2022-10-23T15:18:57.587Z,11.90
2022-10-23T15:21:47.881Z,11.50
2022-10-23T15:24:37.485Z,11.40
2022-10-23T15:27:26.805Z,11.60
2022-10-23T15:30:18.727Z,11.30
2022-10-23T15:33:08.056Z,11.20
2022-10-23T15:35:57.736Z,11.57
2022-10-23T15:38:47.005Z,11.30
2022-10-23T15:41:39.204Z,11.70
2022-10-23T15:44:31.093Z,11.50
2022-10-23T15:47:21.869Z,12.73
2022-10-23T15:50:11.467Z,11.93
2022-10-23T15:53:01.137Z,12.07
2022-10-23T15:55:50.514Z,11.70
2022-10-23T15:58:40.178Z,11.63
2022-10-23T16:01:29.829Z,11.40
2022-10-23T16:04:20.933Z,14.00
2022-10-23T16:07:10.287Z,14.30
2022-10-23T16:10:00.342Z,14.40
2022-10-23T16:12:49.806Z,14.90
2022-10-23T16:15:39.647Z,15.00
2022-10-23T16:18:29.094Z,17.03
2022-10-23T16:21:22.833Z,12.70
2022-10-23T16:24:12.323Z,11.63
2022-10-23T16:27:01.801Z,14.10
2022-10-23T16:29:51.142Z,16.07
2022-10-23T16:32:40.682Z,14.90
2022-10-23T16:35:31.185Z,14.70
2022-10-23T16:38:30.955Z,16.60
2022-10-23T16:41:20.332Z,15.87
2022-10-23T16:44:22.370Z,14.17
2022-10-23T16:47:23.007Z,13.20
2022-10-23T16:50:12.432Z,15.60
2022-10-23T16:53:01.944Z,15.30
2022-10-23T16:55:52.638Z,13.60
2022-10-23T16:58:42.596Z,12.33
2022-10-23T17:01:34.072Z,12.83
2022-10-23T17:04:23.502Z,12.23
2022-10-23T17:07:13.456Z,12.60
2022-10-23T17:10:02.923Z,13.97
2022-10-23T17:12:53.724Z,14.23
2022-10-23T17:15:43.162Z,13.47
2022-10-23T17:18:32.637Z,14.27
2022-10-23T17:21:23.837Z,12.60
2022-10-23T17:24:14.043Z,13.23
2022-10-23T17:27:03.483Z,14.40
2022-10-23T17:29:54.279Z,13.20
2022-10-23T17:32:43.747Z,13.30
2022-10-23T17:35:33.343Z,14.00
2022-10-23T17:38:22.732Z,12.40
2022-10-23T17:41:15.512Z,12.23
2022-10-23T17:44:05.471Z,12.30
2022-10-23T17:46:56.817Z,14.20
2022-10-23T17:49:46.254Z,12.83
2022-10-23T17:52:35.913Z,13.47
2022-10-23T17:55:25.386Z,13.13
2022-10-23T17:58:14.750Z,13.33
2022-10-23T18:01:07.456Z,14.80
2022-10-23T18:04:01.998Z,13.30
2022-10-23T18:06:54.445Z,15.57
2022-10-23T18:09:43.855Z,12.40
2022-10-23T18:12:33.715Z,12.80
2022-10-23T18:15:23.328Z,13.17
2022-10-23T18:18:12.698Z,12.50
2022-10-23T18:21:04.891Z,15.00
2022-10-23T18:23:54.708Z,12.20
2022-10-23T18:26:46.109Z,11.30
2022-10-23T18:29:35.541Z,11.93
2022-10-23T18:32:24.903Z,11.67
2022-10-23T18:35:14.224Z,11.70
2022-10-23T18:38:05.953Z,11.33
2022-10-23T18:40:56.755Z,11.80
2022-10-23T18:43:46.483Z,11.60
2022-10-23T18:46:36.842Z,12.03
2022-10-23T18:49:26.634Z,12.07
2022-10-23T18:52:15.971Z,11.77
2022-10-23T18:55:08.440Z,12.10
2022-10-23T18:57:58.155Z,12.60
2022-10-23T19:00:47.967Z,13.43
2022-10-23T19:03:37.354Z,12.87
2022-10-23T19:06:27.104Z,13.33
2022-10-23T19:09:16.918Z,13.33
2022-10-23T19:12:07.844Z,12.63
2022-10-23T19:14:57.295Z,12.77
2022-10-23T19:17:54.225Z,13.17
2022-10-23T19:20:45.295Z,14.40
2022-10-23T19:23:36.446Z,16.20
2022-10-23T19:26:25.887Z,13.27
2022-10-23T19:29:20.880Z,12.70
2022-10-23T19:32:10.761Z,13.90
2022-10-23T19:35:01.173Z,13.00
2022-10-23T19:37:50.726Z,15.53
2022-10-23T19:40:40.132Z,13.63
2022-10-23T19:43:29.498Z,13.80
2022-10-23T19:46:20.377Z,13.50
2022-10-23T19:49:09.896Z,12.77
2022-10-23T19:51:59.266Z,12.50
2022-10-23T19:54:48.689Z,13.47
2022-10-23T19:57:38.325Z,13.50
2022-10-23T20:00:28.162Z,12.60
2022-10-23T20:03:19.542Z,12.70
2022-10-23T20:06:14.308Z,12.30
2022-10-23T20:09:09.331Z,11.90
2022-10-23T20:12:00.505Z,12.70
2022-10-23T20:14:50.783Z,12.20
2022-10-23T20:17:40.138Z,14.03
2022-10-23T20:20:30.909Z,12.70
2022-10-23T20:23:20.288Z,11.50
2022-10-23T20:26:12.414Z,12.70
2022-10-23T20:29:01.799Z,11.90
2022-10-23T20:31:51.645Z,11.87
2022-10-23T20:34:41.057Z,12.03
2022-10-23T20:37:31.775Z,11.90
2022-10-23T20:40:21.122Z,12.27
2022-10-23T20:43:10.457Z,11.50
2022-10-23T20:46:04.398Z,11.53
2022-10-23T20:48:54.747Z,11.40
2022-10-23T20:51:46.337Z,11.17
2022-10-23T20:54:38.201Z,11.57
2022-10-23T20:57:27.581Z,12.70
2022-10-23T21:00:17.049Z,10.50
2022-10-23T21:03:06.357Z,10.70
2022-10-23T21:05:55.662Z,11.50
2022-10-23T21:08:45.460Z,11.03
2022-10-23T21:11:37.504Z,10.93
2022-10-23T21:14:27.293Z,11.37
2022-10-23T21:17:17.043Z,10.80
2022-10-23T21:20:07.762Z,10.73
2022-10-23T21:22:57.567Z,10.80
2022-10-23T21:28:50.879Z,11.07
2022-10-23T21:31:45.231Z,11.00
2022-10-23T21:34:34.639Z,11.67
2022-10-23T21:37:25.050Z,11.90
2022-10-23T21:40:14.546Z,10.77
2022-10-23T21:43:03.862Z,11.10
2022-10-23T21:45:58.128Z,12.93
2022-10-23T21:48:48.818Z,10.97
2022-10-23T21:51:39.152Z,11.17
2022-10-23T21:54:28.514Z,11.30
2022-10-23T21:57:17.848Z,11.43
2022-10-23T22:00:10.151Z,11.10
2022-10-23T22:03:20.834Z,11.07
2022-10-23T22:06:15.665Z,11.10
2022-10-23T22:09:07.283Z,11.70
2022-10-23T22:11:57.133Z,11.30
2022-10-23T22:14:46.640Z,12.10
2022-10-23T22:17:36.016Z,10.90
2022-10-23T22:20:26.672Z,11.13
2022-10-23T22:23:16.009Z,11.70
2022-10-23T22:26:07.923Z,11.10
2022-10-23T22:28:59.849Z,11.23
2022-10-23T22:31:50.120Z,11.10
2022-10-23T22:34:52.339Z,10.70
2022-10-23T22:37:43.920Z,11.00
2022-10-23T22:40:33.249Z,10.70
2022-10-23T22:43:22.613Z,10.80
2022-10-23T22:46:14.408Z,11.73
2022-10-23T22:51:57.943Z,10.97
2022-10-23T22:54:49.246Z,11.07
2022-10-23T22:57:38.607Z,11.23
2022-10-23T23:00:27.960Z,12.00
2022-10-23T23:03:17.602Z,11.60
2022-10-23T23:06:08.514Z,12.83
2022-10-23T23:08:57.953Z,12.27
2022-10-23T23:11:52.490Z,12.70
2022-10-23T23:14:43.716Z,11.13
2022-10-23T23:17:33.022Z,11.30
2022-10-23T23:20:22.328Z,11.30
2022-10-23T23:23:14.152Z,11.23
2022-10-23T23:26:09.160Z,11.60
2022-10-23T23:28:59.812Z,11.03
2022-10-23T23:31:49.101Z,11.30
2022-10-23T23:34:38.394Z,10.90
2022-10-23T23:37:28.469Z,11.30
2022-10-23T23:40:17.915Z,10.80
2022-10-23T23:43:07.445Z,10.80
2022-10-23T23:45:58.761Z,12.23
2022-10-23T23:48:49.561Z,11.30
2022-10-23T23:51:38.903Z,11.00
2022-10-23T23:54:28.346Z,12.53
2022-10-23T23:57:17.672Z,10.40
